createdAt,value
2022-11-12T00:01:41.401Z,15.32
2022-11-12T00:04:27.941Z,16.27
2022-11-12T00:07:14.277Z,14.50
2022-11-12T00:10:00.478Z,13.95
2022-11-12T00:12:46.435Z,15.02
2022-11-12T00:15:32.766Z,14.57
2022-11-12T00:18:19.008Z,16.48
2022-11-12T00:21:05.129Z,16.27
2022-11-12T00:23:51.240Z,17.48
2022-11-12T00:26:37.377Z,16.00
2022-11-12T00:29:23.681Z,15.88
2022-11-12T00:32:09.924Z,16.37
2022-11-12T00:34:55.896Z,15.25
2022-11-12T00:37:42.016Z,15.20
2022-11-12T00:40:29.272Z,14.25
2022-11-12T00:43:15.344Z,15.30
2022-11-12T00:46:01.271Z,14.87
2022-11-12T00:48:47.398Z,14.73
2022-11-12T00:51:34.063Z,13.02
2022-11-12T00:54:20.101Z,12.80
2022-11-12T00:57:05.961Z,13.68
2022-11-12T00:59:52.050Z,12.82
2022-11-12T01:02:43.220Z,13.20
2022-11-12T01:05:32.660Z,12.13
2022-11-12T01:08:18.815Z,12.80
2022-11-12T01:11:16.397Z,12.18
2022-11-12T01:14:05.477Z,11.95
2022-11-12T01:16:51.736Z,12.40
2022-11-12T01:19:43.140Z,12.52
2022-11-12T01:22:29.078Z,12.25
2022-11-12T01:25:14.981Z,11.75
2022-11-12T01:28:01.135Z,11.65
2022-11-12T01:30:46.833Z,11.40
2022-11-12T01:33:32.742Z,11.50
2022-11-12T01:36:20.995Z,11.68
2022-11-12T01:39:08.489Z,11.57
2022-11-12T01:41:54.414Z,11.23
2022-11-12T01:44:44.295Z,11.77
2022-11-12T01:47:34.499Z,11.32
2022-11-12T01:50:28.708Z,10.73
2022-11-12T01:53:15.190Z,10.80
2022-11-12T01:56:03.912Z,10.85
2022-11-12T01:58:55.506Z,10.95
2022-11-12T02:01:42.276Z,11.68
2022-11-12T02:04:28.607Z,10.90
2022-11-12T02:07:16.463Z,12.10
2022-11-12T02:10:05.416Z,12.15
2022-11-12T02:13:12.928Z,12.23
2022-11-12T02:15:59.123Z,12.40
2022-11-12T02:18:45.621Z,11.93
2022-11-12T02:21:37.461Z,11.77
2022-11-12T02:24:26.680Z,11.88
2022-11-12T02:27:12.835Z,12.25
2022-11-12T02:29:58.744Z,12.30
2022-11-12T02:32:44.743Z,12.35
2022-11-12T02:35:31.572Z,12.30
2022-11-12T02:38:17.963Z,12.27
2022-11-12T02:41:04.064Z,11.70
2022-11-12T02:43:52.353Z,12.52
2022-11-12T02:46:38.900Z,13.15
2022-11-12T02:49:25.082Z,12.35
2022-11-12T02:52:13.809Z,12.90
2022-11-12T02:54:59.775Z,13.15
2022-11-12T02:57:45.940Z,13.50
2022-11-12T03:00:32.226Z,12.95
2022-11-12T03:03:18.516Z,13.35
2022-11-12T03:06:04.883Z,12.40
2022-11-12T03:08:51.222Z,13.50
2022-11-12T03:11:37.348Z,13.52
2022-11-12T03:14:23.860Z,14.40
2022-11-12T03:17:10.074Z,13.07
2022-11-12T03:19:56.421Z,13.35
2022-11-12T03:22:43.097Z,13.50
2022-11-12T03:25:30.312Z,13.88
2022-11-12T03:28:17.314Z,14.65
2022-11-12T03:31:03.379Z,13.75
2022-11-12T03:33:49.685Z,13.27
2022-11-12T03:36:35.524Z,14.05
2022-11-12T03:39:21.491Z,13.73
2022-11-12T03:42:07.523Z,13.82
2022-11-12T03:44:53.522Z,13.95
2022-11-12T03:47:48.298Z,13.18
2022-11-12T03:50:34.214Z,13.20
2022-11-12T03:53:20.396Z,13.93
2022-11-12T03:56:06.339Z,14.10
2022-11-12T03:58:52.481Z,13.65
2022-11-12T04:01:38.394Z,14.02
2022-11-12T04:04:44.653Z,14.13
2022-11-12T04:07:49.720Z,14.43
2022-11-12T04:10:36.263Z,14.05
2022-11-12T04:13:28.169Z,14.75
2022-11-12T04:16:32.349Z,13.15
2022-11-12T04:19:37.196Z,14.32
2022-11-12T04:22:22.967Z,13.02
2022-11-12T04:25:27.550Z,12.95
2022-11-12T04:28:13.448Z,14.07
2022-11-12T04:30:59.266Z,14.85
2022-11-12T04:33:45.182Z,15.32
2022-11-12T04:36:31.046Z,14.73
2022-11-12T04:39:17.597Z,15.88
2022-11-12T04:42:22.905Z,15.45
2022-11-12T04:45:10.480Z,16.80
2022-11-12T04:47:56.583Z,16.85
2022-11-12T04:50:44.808Z,15.98
2022-11-12T04:53:31.124Z,16.83
2022-11-12T04:56:17.049Z,16.27
2022-11-12T04:59:02.900Z,16.85
2022-11-12T05:02:01.046Z,18.17
2022-11-12T05:04:46.916Z,17.92
2022-11-12T05:07:33.292Z,18.12
2022-11-12T05:10:19.328Z,17.80
2022-11-12T05:13:06.304Z,18.45
2022-11-12T05:15:52.427Z,17.70
2022-11-12T05:18:38.254Z,17.73
2022-11-12T05:21:43.762Z,17.77
2022-11-12T05:24:41.552Z,18.75
2022-11-12T05:27:28.354Z,19.02
2022-11-12T05:30:14.652Z,18.23
2022-11-12T05:33:00.865Z,18.33
2022-11-12T05:35:46.549Z,18.85
2022-11-12T05:38:33.047Z,19.00
2022-11-12T05:41:20.247Z,18.85
2022-11-12T05:44:06.743Z,17.80
2022-11-12T05:46:53.615Z,18.25
2022-11-12T05:49:39.468Z,17.80
2022-11-12T05:52:25.241Z,17.75
2022-11-12T05:55:11.327Z,21.25
2022-11-12T05:57:57.704Z,18.90
2022-11-12T06:00:43.641Z,18.12
2022-11-12T06:03:30.450Z,17.37
2022-11-12T06:06:16.528Z,19.25
2022-11-12T06:09:02.525Z,18.80
2022-11-12T06:11:48.416Z,18.67
2022-11-12T06:14:34.723Z,18.83
2022-11-12T06:17:21.566Z,18.95
2022-11-12T06:20:08.564Z,19.75
2022-11-12T06:22:54.682Z,20.73
2022-11-12T06:25:40.542Z,20.65
2022-11-12T06:28:27.227Z,21.15
2022-11-12T06:31:13.964Z,21.60
2022-11-12T06:34:00.177Z,20.10
2022-11-12T06:36:48.781Z,19.48
2022-11-12T06:39:34.875Z,19.17
2022-11-12T06:42:20.795Z,19.33
2022-11-12T06:45:07.424Z,20.62
2022-11-12T06:47:58.010Z,19.83
2022-11-12T06:50:43.952Z,20.02
2022-11-12T06:53:30.155Z,21.37
2022-11-12T06:56:16.379Z,21.77
2022-11-12T06:59:02.868Z,20.75
2022-11-12T07:01:49.322Z,20.77
2022-11-12T07:04:35.140Z,22.15
2022-11-12T07:07:21.217Z,24.20
2022-11-12T07:10:08.645Z,24.63
2022-11-12T07:12:54.940Z,20.70
2022-11-12T07:15:40.800Z,20.45
2022-11-12T07:18:28.214Z,19.17
2022-11-12T07:21:18.369Z,19.40
2022-11-12T07:24:04.466Z,19.42
2022-11-12T07:26:50.534Z,17.77
2022-11-12T07:29:47.635Z,17.00
2022-11-12T07:32:40.131Z,19.00
2022-11-12T07:35:29.471Z,18.10
2022-11-12T07:38:15.430Z,18.08
2022-11-12T07:41:01.234Z,18.30
2022-11-12T07:43:49.930Z,17.65
2022-11-12T07:46:36.348Z,17.67
2022-11-12T07:49:22.183Z,17.20
2022-11-12T07:52:07.979Z,18.27
2022-11-12T07:54:53.728Z,17.25
2022-11-12T07:57:39.823Z,18.87
2022-11-12T08:00:26.176Z,15.48
2022-11-12T08:03:12.020Z,14.90
2022-11-12T08:06:00.193Z,16.12
2022-11-12T08:08:46.313Z,15.07
2022-11-12T08:11:33.100Z,14.05
2022-11-12T08:14:23.218Z,14.13
2022-11-12T08:17:09.718Z,14.63
2022-11-12T08:19:56.305Z,15.07
2022-11-12T08:23:04.314Z,16.08
2022-11-12T08:25:51.841Z,14.55
2022-11-12T08:28:39.234Z,15.95
2022-11-12T08:31:28.851Z,14.95
2022-11-12T08:34:21.419Z,15.57
2022-11-12T08:37:08.951Z,15.27
2022-11-12T08:39:55.390Z,14.90
2022-11-12T08:42:42.055Z,14.93
2022-11-12T08:45:31.804Z,14.50
2022-11-12T08:48:22.170Z,14.27
2022-11-12T08:51:12.019Z,15.15
2022-11-12T08:53:58.616Z,14.25
2022-11-12T08:56:44.654Z,13.60
2022-11-12T08:59:30.497Z,13.73
2022-11-12T09:02:16.462Z,14.20
2022-11-12T09:05:02.428Z,13.88
2022-11-12T09:07:56.427Z,15.05
2022-11-12T09:10:42.838Z,14.50
2022-11-12T09:13:29.139Z,14.27
2022-11-12T09:16:15.688Z,13.18
2022-11-12T09:19:02.081Z,13.25
2022-11-12T09:21:48.342Z,13.48
2022-11-12T09:24:34.753Z,13.52
2022-11-12T09:27:21.004Z,13.68
2022-11-12T09:30:09.237Z,13.38
2022-11-12T09:32:59.347Z,12.73
2022-11-12T09:35:46.826Z,14.02
2022-11-12T09:38:33.579Z,14.45
2022-11-12T09:41:28.407Z,13.48
2022-11-12T09:44:20.839Z,13.10
2022-11-12T09:47:23.784Z,13.43
2022-11-12T09:50:34.012Z,12.77
2022-11-12T09:53:44.299Z,14.05
2022-11-12T09:56:30.890Z,12.88
2022-11-12T09:59:17.691Z,13.40
2022-11-12T10:02:15.391Z,13.05
2022-11-12T10:05:20.041Z,13.25
2022-11-12T10:08:33.875Z,13.90
2022-11-12T10:11:25.443Z,13.48
2022-11-12T10:14:34.247Z,13.52
2022-11-12T10:17:41.849Z,13.68
2022-11-12T10:20:56.960Z,12.07
2022-11-12T10:23:46.750Z,11.65
2022-11-12T10:26:34.145Z,12.63
2022-11-12T10:29:44.986Z,11.85
2022-11-12T10:32:31.721Z,11.35
2022-11-12T10:35:23.545Z,11.68
2022-11-12T10:38:22.648Z,11.55
2022-11-12T10:41:37.447Z,12.00
2022-11-12T10:44:27.894Z,10.68
2022-11-12T10:47:25.661Z,10.82
2022-11-12T10:50:20.754Z,9.77
2022-11-12T10:53:11.435Z,10.15
2022-11-12T10:56:21.357Z,10.00
2022-11-12T10:59:21.556Z,9.98
2022-11-12T11:02:17.126Z,9.17
2022-11-12T11:05:32.499Z,8.95
2022-11-12T11:08:36.241Z,8.95
2022-11-12T11:11:24.365Z,8.02
2022-11-12T11:14:22.862Z,8.23
2022-11-12T11:17:17.507Z,7.75
2022-11-12T11:20:18.944Z,9.65
2022-11-12T11:23:26.209Z,8.27
2022-11-12T11:26:55.186Z,9.18
2022-11-12T11:30:03.758Z,9.40
2022-11-12T11:33:01.674Z,9.30
2022-11-12T11:35:56.458Z,9.13
2022-11-12T11:39:07.435Z,9.13
2022-11-12T11:41:59.484Z,9.23
2022-11-12T11:44:56.250Z,8.60
2022-11-12T11:48:02.672Z,8.38
2022-11-12T11:51:01.452Z,8.57
2022-11-12T11:54:04.929Z,7.80
2022-11-12T11:56:56.081Z,8.38
2022-11-12T11:59:50.950Z,8.75
2022-11-12T12:02:55.260Z,8.85
2022-11-12T12:05:55.912Z,8.15
2022-11-12T12:08:52.739Z,9.25
2022-11-12T12:12:16.655Z,7.85
2022-11-12T12:15:32.599Z,7.95
2022-11-12T12:18:48.384Z,8.15
2022-11-12T12:21:38.972Z,7.25
2022-11-12T12:24:29.961Z,7.68
2022-11-12T12:27:21.379Z,8.10
2022-11-12T12:30:20.996Z,6.90
2022-11-12T12:33:16.162Z,7.62
2022-11-12T12:36:25.114Z,6.85
2022-11-12T12:39:20.106Z,7.03
2022-11-12T12:42:34.351Z,7.07
2022-11-12T12:45:23.159Z,6.80
2022-11-12T12:48:41.055Z,6.43
2022-11-12T12:51:31.946Z,6.40
2022-11-12T12:57:39.232Z,6.18
2022-11-12T13:03:43.094Z,5.50
2022-11-12T13:06:37.445Z,5.40
2022-11-12T13:09:27.654Z,6.03
2022-11-12T13:12:17.838Z,7.10
2022-11-12T13:15:16.114Z,5.97
2022-11-12T13:18:02.646Z,6.28
2022-11-12T13:21:10.524Z,6.30
2022-11-12T13:24:08.245Z,6.05
2022-11-12T13:26:58.292Z,6.45
2022-11-12T13:29:47.676Z,6.95
2022-11-12T13:32:47.007Z,6.10
2022-11-12T13:35:36.671Z,5.93
2022-11-12T13:38:23.410Z,6.20
2022-11-12T13:41:17.721Z,6.00
2022-11-12T13:44:08.113Z,6.65
2022-11-12T13:46:56.145Z,6.30
2022-11-12T13:49:47.628Z,6.15
2022-11-12T13:52:36.625Z,6.28
2022-11-12T13:55:23.064Z,6.70
2022-11-12T13:58:32.910Z,7.00
2022-11-12T14:01:23.640Z,6.53
2022-11-12T14:04:21.770Z,7.43
2022-11-12T14:07:38.324Z,6.57
2022-11-12T14:10:51.195Z,6.65
2022-11-12T14:14:23.848Z,7.45
2022-11-12T14:18:02.893Z,6.72
2022-11-12T14:21:19.747Z,7.00
2022-11-12T14:24:26.065Z,6.78
2022-11-12T14:27:35.012Z,6.80
2022-11-12T14:30:25.780Z,6.80
2022-11-12T14:33:38.965Z,7.63
2022-11-12T14:37:33.655Z,7.55
2022-11-12T14:40:57.578Z,6.47
2022-11-12T14:44:13.916Z,6.30
2022-11-12T14:47:01.244Z,6.30
2022-11-12T14:50:37.449Z,7.87
2022-11-12T14:53:54.569Z,6.78
2022-11-12T14:56:44.612Z,8.18
2022-11-12T14:59:32.999Z,8.90
2022-11-12T15:03:01.436Z,8.82
2022-11-12T15:06:09.401Z,9.00
2022-11-12T15:13:06.853Z,9.80
2022-11-12T15:17:13.022Z,9.63
2022-11-12T15:21:02.269Z,9.27
2022-11-12T15:33:15.905Z,10.80
2022-11-12T16:28:11.777Z,12.52
2022-11-12T16:42:15.059Z,15.10
2022-11-12T17:38:43.001Z,20.05
2022-11-12T17:41:45.894Z,21.67
2022-11-12T17:44:32.414Z,28.80
2022-11-12T17:47:19.299Z,27.37
2022-11-12T17:50:06.283Z,26.25
2022-11-12T17:53:02.290Z,22.35
2022-11-12T17:56:24.086Z,22.00
2022-11-12T17:59:30.794Z,22.33
2022-11-12T18:02:40.312Z,20.20
2022-11-12T18:09:50.447Z,27.25
2022-11-12T18:13:03.882Z,28.75
2022-11-12T18:15:51.754Z,29.05
2022-11-12T18:18:38.884Z,30.23
2022-11-12T18:21:28.538Z,32.17
2022-11-12T18:24:56.172Z,29.67
2022-11-12T18:32:29.018Z,39.92
2022-11-12T18:39:54.124Z,35.53
2022-11-12T18:43:21.252Z,33.38
2022-11-12T18:50:09.422Z,34.03
2022-11-12T18:53:46.002Z,33.65
2022-11-12T18:57:16.066Z,36.22
2022-11-12T19:00:43.707Z,39.07
2022-11-12T19:14:39.191Z,39.58
2022-11-12T19:18:02.533Z,41.85
2022-11-12T19:21:18.591Z,40.95
2022-11-12T19:28:18.110Z,45.28
2022-11-12T19:31:44.481Z,43.42
2022-11-12T19:35:17.362Z,39.10
2022-11-12T19:54:21.209Z,45.72
2022-11-12T19:57:09.354Z,48.53
2022-11-12T20:00:36.771Z,59.60
2022-11-12T20:03:44.234Z,53.40
2022-11-12T20:07:12.944Z,47.47
2022-11-12T20:10:40.960Z,52.75
2022-11-12T20:13:54.375Z,47.38
2022-11-12T20:17:00.731Z,45.10
2022-11-12T20:19:47.771Z,45.15
2022-11-12T20:22:57.088Z,44.83
2022-11-12T20:25:43.568Z,45.28
2022-11-12T20:28:50.249Z,44.15
2022-11-12T20:31:56.742Z,43.03
2022-11-12T20:35:08.529Z,41.58
2022-11-12T20:38:00.051Z,41.13
2022-11-12T20:41:08.485Z,41.35
2022-11-12T20:44:15.332Z,38.50
2022-11-12T20:47:22.936Z,39.60
2022-11-12T20:54:58.914Z,38.53
2022-11-12T20:58:07.623Z,37.08
2022-11-12T21:01:32.273Z,36.47
2022-11-12T21:04:58.114Z,37.08
2022-11-12T21:08:04.455Z,36.95
2022-11-12T21:10:53.990Z,36.13
2022-11-12T21:13:42.530Z,37.15
2022-11-12T21:16:49.135Z,36.63
2022-11-12T21:20:12.551Z,36.42
2022-11-12T21:23:19.751Z,36.78
2022-11-12T21:26:14.387Z,36.42
2022-11-12T21:29:40.529Z,34.50
2022-11-12T21:32:46.638Z,34.30
2022-11-12T21:36:16.381Z,39.00
2022-11-12T21:39:22.907Z,38.50
2022-11-12T21:49:12.580Z,37.17
2022-11-12T21:52:38.965Z,35.60
2022-11-12T21:56:08.149Z,36.05
2022-11-12T21:59:34.952Z,37.88
2022-11-12T22:03:01.063Z,38.83
2022-11-12T22:06:29.533Z,42.40
2022-11-12T22:09:57.299Z,39.28
2022-11-12T22:13:27.630Z,38.20
2022-11-12T22:16:50.398Z,36.42
2022-11-12T22:20:17.247Z,37.33
2022-11-12T22:23:44.101Z,37.80
2022-11-12T22:27:11.326Z,36.97
2022-11-12T22:30:37.482Z,37.00
2022-11-12T22:34:11.784Z,36.97
2022-11-12T22:37:38.108Z,36.30
2022-11-12T22:41:07.365Z,35.92
2022-11-12T22:44:33.521Z,34.70
2022-11-12T22:48:00.029Z,33.15
2022-11-12T22:51:29.139Z,36.13
2022-11-12T22:55:03.609Z,42.22
2022-11-12T22:58:38.308Z,39.85
2022-11-12T23:02:04.688Z,38.90
2022-11-12T23:08:51.654Z,40.10
2022-11-12T23:12:18.081Z,40.53
2022-11-12T23:15:46.067Z,39.38
2022-11-12T23:19:12.639Z,35.45
2022-11-12T23:22:38.937Z,36.10
2022-11-12T23:29:47.145Z,33.58
2022-11-12T23:33:13.529Z,33.55
2022-11-12T23:36:40.249Z,31.70
2022-11-12T23:43:27.477Z,30.67
2022-11-12T23:46:53.875Z,31.20
2022-11-12T23:50:20.646Z,29.40
2022-11-12T23:53:53.087Z,29.87
2022-11-12T23:57:19.691Z,28.65
